Onego Monsoon — 5BKT2 — position and weather

sailwx.info

Track history (hours):
 
Tides and Currents Weather Stations Pressure Air Temp Water Temp Dewpoint Dewpoint Depression Visibility Wind Speed Wind Dir Waves Ship Positions

Onego Monsoon

Last reported at 2017-Oct-18 23:19 UTC. Time now 2017-Oct-20 14:09 UTC.
Position S 04°52' E 011°39'.

Length 117 m; draft 5.4 m.

MMSI: 210724000.

Date/timePositionNaut miles runAvg speedWind from/ knotsBaromVisibWave heightAir tempDewpointWater temp
2017-Oct-18 23:19S 04°52' E 011°39'4 7.8
2017-Oct-18 22:51S 04°54' E 011°36'3 7.8
2017-Oct-18 22:29S 04°55' E 011°33'5 8.0
2017-Oct-18 21:54S 04°60' E 011°32'4 7.9
2017-Oct-18 21:27S 05°03' E 011°31'3 7.5
2017-Oct-18 21:00S 05°06' E 011°33'4 7.6
2017-Oct-18 20:30S 05°09' E 011°35'4 7.5
2017-Oct-18 19:59S 05°11' E 011°38'  
2017-Oct-09 09:17S 05°17' E 011°42'2 5.8
2017-Oct-09 09:00S 05°15' E 011°41'7 6.0
2017-Oct-09 07:53S 05°10' E 011°36'2 6.0
2017-Oct-09 07:30S 05°08' E 011°35'3 5.9
2017-Oct-09 06:58S 05°06' E 011°33'3 5.8
2017-Oct-09 06:30S 05°04' E 011°31'3 5.5
2017-Oct-09 06:00S 05°02' E 011°29'3 6.0
2017-Oct-09 05:26S 04°58' E 011°31'3 6.3
2017-Oct-09 05:00S 04°56' E 011°32'  
Track history (hours):
 
Tides and Currents Weather Stations Pressure Air Temp Water Temp Dewpoint Dewpoint Depression Visibility Wind Speed Wind Dir Waves Ship Positions

Onego Monsoon

Last reported at 2017-Oct-18 23:19 UTC. Time now 2017-Oct-20 14:09 UTC.
Position S 04°52' E 011°39'.

Length 117 m; draft 5.4 m.

MMSI: 210724000.

Date/timePositionNaut miles runAvg speedWind from/ knotsBaromVisibWave heightAir tempDewpointWater temp
2017-Oct-18 23:19S 04°52' E 011°39'4 7.8
2017-Oct-18 22:51S 04°54' E 011°36'3 7.8
2017-Oct-18 22:29S 04°55' E 011°33'5 8.0
2017-Oct-18 21:54S 04°60' E 011°32'4 7.9
2017-Oct-18 21:27S 05°03' E 011°31'3 7.5
2017-Oct-18 21:00S 05°06' E 011°33'4 7.6
2017-Oct-18 20:30S 05°09' E 011°35'4 7.5
2017-Oct-18 19:59S 05°11' E 011°38'  
2017-Oct-09 09:17S 05°17' E 011°42'2 5.8
2017-Oct-09 09:00S 05°15' E 011°41'7 6.0
2017-Oct-09 07:53S 05°10' E 011°36'2 6.0
2017-Oct-09 07:30S 05°08' E 011°35'3 5.9
2017-Oct-09 06:58S 05°06' E 011°33'3 5.8
2017-Oct-09 06:30S 05°04' E 011°31'3 5.5
2017-Oct-09 06:00S 05°02' E 011°29'3 6.0
2017-Oct-09 05:26S 04°58' E 011°31'3 6.3
2017-Oct-09 05:00S 04°56' E 011°32'  

Dump ship's entire track history